sensor_id;sensor_type;location;lat;lon;timestamp;pressure;altitude;pressure_sealevel;temperature;humidity
43161;BME280;40968;52.342;5.528;2023-02-14T00:00:24;103531.81;;;5.81;71.44
43161;BME280;40968;52.342;5.528;2023-02-14T00:02:51;103507.16;;;5.65;71.96
43161;BME280;40968;52.342;5.528;2023-02-14T00:05:18;103507.16;;;5.65;73.21
43161;BME280;40968;52.342;5.528;2023-02-14T00:07:44;103441.09;;;5.25;72.55
43161;BME280;40968;52.342;5.528;2023-02-14T00:10:11;103357.38;;;4.76;72.49
43161;BME280;40968;52.342;5.528;2023-02-14T00:12:38;103535.41;;;5.77;72.36
43161;BME280;40968;52.342;5.528;2023-02-14T00:15:04;103482.56;;;5.42;72.52
43161;BME280;40968;52.342;5.528;2023-02-14T00:17:51;103534.59;;;5.71;72.89
43161;BME280;40968;52.342;5.528;2023-02-14T00:20:19;103531.06;;;5.69;72.56
43161;BME280;40968;52.342;5.528;2023-02-14T00:22:46;103437.75;;;5.02;71.66
43161;BME280;40968;52.342;5.528;2023-02-14T00:25:13;103432.47;;;4.98;71.71
43161;BME280;40968;52.342;5.528;2023-02-14T00:27:40;103432.53;;;4.94;71.70
43161;BME280;40968;52.342;5.528;2023-02-14T00:30:07;103485.41;;;5.23;72.05
43161;BME280;40968;52.342;5.528;2023-02-14T00:32:36;103466.06;;;5.09;71.96
43161;BME280;40968;52.342;5.528;2023-02-14T00:35:06;103534.91;;;5.40;71.91
43161;BME280;40968;52.342;5.528;2023-02-14T00:37:32;103521.66;;;5.34;71.84
43161;BME280;40968;52.342;5.528;2023-02-14T00:39:59;103481.13;;;5.05;72.54
43161;BME280;40968;52.342;5.528;2023-02-14T00:42:26;103520.81;;;5.28;72.66
43161;BME280;40968;52.342;5.528;2023-02-14T00:44:52;103302.25;;;4.01;73.00
43161;BME280;40968;52.342;5.528;2023-02-14T00:47:19;103516.44;;;5.24;73.88
43161;BME280;40968;52.342;5.528;2023-02-14T00:49:45;103386.78;;;4.53;73.77
43161;BME280;40968;52.342;5.528;2023-02-14T00:52:13;103503.19;;;5.18;74.38
43161;BME280;40968;52.342;5.528;2023-02-14T00:54:40;103495.19;;;5.20;74.01
43161;BME280;40968;52.342;5.528;2023-02-14T00:57:07;103347.94;;;4.41;74.55
43161;BME280;40968;52.342;5.528;2023-02-14T00:59:33;103421.13;;;4.81;74.67
43161;BME280;40968;52.342;5.528;2023-02-14T01:02:00;103361.22;;;4.44;74.52
43161;BME280;40968;52.342;5.528;2023-02-14T01:04:26;103452.81;;;5.01;74.52
43161;BME280;40968;52.342;5.528;2023-02-14T01:06:53;103490.78;;;5.20;74.31
43161;BME280;40968;52.342;5.528;2023-02-14T01:09:21;103319.84;;;4.17;74.04
43161;BME280;40968;52.342;5.528;2023-02-14T01:11:47;103492.59;;;5.12;73.73
43161;BME280;40968;52.342;5.528;2023-02-14T01:14:14;103423.00;;;4.68;73.61
43161;BME280;40968;52.342;5.528;2023-02-14T01:16:41;103423.03;;;4.62;74.31
43161;BME280;40968;52.342;5.528;2023-02-14T01:19:07;103457.44;;;4.79;74.35
43161;BME280;40968;52.342;5.528;2023-02-14T01:21:34;103494.47;;;5.01;74.45
43161;BME280;40968;52.342;5.528;2023-02-14T01:24:04;103413.34;;;4.56;74.66
43161;BME280;40968;52.342;5.528;2023-02-14T01:26:33;103497.16;;;5.01;74.77
43161;BME280;40968;52.342;5.528;2023-02-14T01:29:00;103496.25;;;4.98;74.35
43161;BME280;40968;52.342;5.528;2023-02-14T01:31:30;103461.06;;;4.72;74.55
43161;BME280;40968;52.342;5.528;2023-02-14T01:33:57;103434.59;;;4.56;74.99
43161;BME280;40968;52.342;5.528;2023-02-14T01:36:26;103484.84;;;4.89;74.90
43161;BME280;40968;52.342;5.528;2023-02-14T01:38:55;103438.09;;;4.58;74.75
43161;BME280;40968;52.342;5.528;2023-02-14T01:41:24;103439.91;;;4.56;74.36
43161;BME280;40968;52.342;5.528;2023-02-14T01:43:56;103497.25;;;4.85;74.94
43161;BME280;40968;52.342;5.528;2023-02-14T01:46:23;103435.56;;;4.46;74.51
43161;BME280;40968;52.342;5.528;2023-02-14T01:48:52;103323.63;;;3.76;74.42
43161;BME280;40968;52.342;5.528;2023-02-14T01:51:21;103420.59;;;4.29;75.10
43161;BME280;40968;52.342;5.528;2023-02-14T01:53:49;103396.84;;;4.14;75.58
43161;BME280;40968;52.342;5.528;2023-02-14T01:56:20;103460.25;;;4.56;75.56
43161;BME280;40968;52.342;5.528;2023-02-14T01:58:50;103340.38;;;3.86;75.61
43161;BME280;40968;52.342;5.528;2023-02-14T02:01:21;103495.56;;;4.75;75.57
43161;BME280;40968;52.342;5.528;2023-02-14T02:03:50;103498.25;;;4.72;75.63
43161;BME280;40968;52.342;5.528;2023-02-14T02:06:21;103366.84;;;4.00;75.44
43161;BME280;40968;52.342;5.528;2023-02-14T02:08:54;103484.13;;;4.63;74.65
43161;BME280;40968;52.342;5.528;2023-02-14T02:11:24;103480.63;;;4.55;74.33
43161;BME280;40968;52.342;5.528;2023-02-14T02:13:51;103480.69;;;4.47;73.35
43161;BME280;40968;52.342;5.528;2023-02-14T02:16:32;103413.72;;;3.97;73.23
43161;BME280;40968;52.342;5.528;2023-02-14T02:19:18;103345.84;;;3.55;73.43
43161;BME280;40968;52.342;5.528;2023-02-14T02:22:06;103485.22;;;4.30;73.72
43161;BME280;40968;52.342;5.528;2023-02-14T02:24:47;103411.13;;;3.84;72.83
43161;BME280;40968;52.342;5.528;2023-02-14T02:27:39;103474.69;;;4.16;72.89
43161;BME280;40968;52.342;5.528;2023-02-14T02:33:51;103469.44;;;4.05;73.07
43161;BME280;40968;52.342;5.528;2023-02-14T02:39:28;103477.41;;;3.97;73.54
43161;BME280;40968;52.342;5.528;2023-02-14T02:42:04;103455.34;;;3.86;74.29
43161;BME280;40968;52.342;5.528;2023-02-14T02:44:41;103414.78;;;3.61;74.85
43161;BME280;40968;52.342;5.528;2023-02-14T02:47:16;103450.97;;;3.79;74.74
43161;BME280;40968;52.342;5.528;2023-02-14T02:49:48;103450.13;;;3.72;74.98
43161;BME280;40968;52.342;5.528;2023-02-14T02:52:41;103488.94;;;3.90;74.17
43161;BME280;40968;52.342;5.528;2023-02-14T02:55:37;103466.03;;;3.72;74.24
43161;BME280;40968;52.342;5.528;2023-02-14T02:58:27;103481.91;;;3.80;74.33
43161;BME280;40968;52.342;5.528;2023-02-14T03:00:57;103464.28;;;3.70;74.22
43161;BME280;40968;52.342;5.528;2023-02-14T03:03:25;103419.28;;;3.39;74.41
43161;BME280;40968;52.342;5.528;2023-02-14T03:06:10;103479.28;;;3.74;74.89
43161;BME280;40968;52.342;5.528;2023-02-14T03:08:38;103466.91;;;3.67;74.17
43161;BME280;40968;52.342;5.528;2023-02-14T03:11:05;103472.22;;;3.67;74.32
43161;BME280;40968;52.342;5.528;2023-02-14T03:13:53;103471.34;;;3.61;73.92
43161;BME280;40968;52.342;5.528;2023-02-14T03:16:33;103466.06;;;3.60;74.34
43161;BME280;40968;52.342;5.528;2023-02-14T03:19:24;103449.28;;;3.47;74.32
43161;BME280;40968;52.342;5.528;2023-02-14T03:22:19;103380.47;;;3.02;73.97
43161;BME280;40968;52.342;5.528;2023-02-14T03:24:54;103398.13;;;3.14;73.70
43161;BME280;40968;52.342;5.528;2023-02-14T03:27:25;103412.25;;;3.13;74.06
43161;BME280;40968;52.342;5.528;2023-02-14T03:29:56;103412.25;;;3.18;74.11
43161;BME280;40968;52.342;5.528;2023-02-14T03:32:33;103406.09;;;3.06;74.22
43161;BME280;40968;52.342;5.528;2023-02-14T03:35:10;103451.09;;;3.32;73.80
43161;BME280;40968;52.342;5.528;2023-02-14T03:37:40;103321.41;;;2.52;73.75
43161;BME280;40968;52.342;5.528;2023-02-14T03:40:17;103454.66;;;3.25;73.81
43161;BME280;40968;52.342;5.528;2023-02-14T03:42:50;103455.53;;;3.23;73.71
43161;BME280;40968;52.342;5.528;2023-02-14T03:45:22;103433.47;;;3.07;73.61
43161;BME280;40968;52.342;5.528;2023-02-14T03:47:54;103387.56;;;2.80;73.06
43161;BME280;40968;52.342;5.528;2023-02-14T03:50:24;103304.66;;;2.36;74.19
43161;BME280;40968;52.342;5.528;2023-02-14T03:52:52;103417.59;;;2.97;74.19
43161;BME280;40968;52.342;5.528;2023-02-14T03:55:26;103287.00;;;2.18;74.21
43161;BME280;40968;52.342;5.528;2023-02-14T03:57:57;103239.38;;;1.90;74.62
43161;BME280;40968;52.342;5.528;2023-02-14T04:00:26;103447.63;;;3.12;74.57
43161;BME280;40968;52.342;5.528;2023-02-14T04:02:58;103320.50;;;2.41;74.09
43161;BME280;40968;52.342;5.528;2023-02-14T04:05:27;103442.31;;;3.04;74.44
43161;BME280;40968;52.342;5.528;2023-02-14T04:07:55;103432.59;;;2.94;73.89
43161;BME280;40968;52.342;5.528;2023-02-14T04:10:24;103429.06;;;2.89;73.68
43161;BME280;40968;52.342;5.528;2023-02-14T04:12:51;103448.50;;;2.95;74.04
43161;BME280;40968;52.342;5.528;2023-02-14T04:15:18;103443.22;;;2.92;74.21
43161;BME280;40968;52.342;5.528;2023-02-14T04:17:45;103407.00;;;2.67;74.20
43161;BME280;40968;52.342;5.528;2023-02-14T04:20:29;103452.94;;;2.87;74.19
43161;BME280;40968;52.342;5.528;2023-02-14T04:22:55;103450.25;;;2.82;73.80
43161;BME280;40968;52.342;5.528;2023-02-14T04:25:23;103384.91;;;2.38;74.75
43161;BME280;40968;52.342;5.528;2023-02-14T04:27:50;103452.03;;;2.82;74.84
43161;BME280;40968;52.342;5.528;2023-02-14T04:30:17;103451.16;;;2.83;75.07
43161;BME280;40968;52.342;5.528;2023-02-14T04:32:45;103379.66;;;2.40;74.84
43161;BME280;40968;52.342;5.528;2023-02-14T04:35:12;103450.28;;;2.78;74.61
43161;BME280;40968;52.342;5.528;2023-02-14T04:37:39;103447.59;;;2.75;75.07
43161;BME280;40968;52.342;5.528;2023-02-14T04:40:06;103444.09;;;2.73;75.29
43161;BME280;40968;52.342;5.528;2023-02-14T04:42:35;103387.56;;;2.37;75.11
43161;BME280;40968;52.342;5.528;2023-02-14T04:45:01;103440.53;;;2.72;75.00
43161;BME280;40968;52.342;5.528;2023-02-14T04:47:28;103440.53;;;2.72;75.20
43161;BME280;40968;52.342;5.528;2023-02-14T04:49:54;103443.19;;;2.71;74.69
43161;BME280;40968;52.342;5.528;2023-02-14T04:52:21;103438.81;;;2.71;75.32
43161;BME280;40968;52.342;5.528;2023-02-14T04:54:48;103342.56;;;2.13;75.07
43161;BME280;40968;52.342;5.528;2023-02-14T04:57:14;103441.44;;;2.68;74.86
43161;BME280;40968;52.342;5.528;2023-02-14T04:59:42;103288.72;;;1.73;75.42
43161;BME280;40968;52.342;5.528;2023-02-14T05:02:09;103405.22;;;2.41;75.09
43161;BME280;40968;52.342;5.528;2023-02-14T05:04:35;103440.53;;;2.61;74.75
43161;BME280;40968;52.342;5.528;2023-02-14T05:07:02;103439.66;;;2.58;74.67
43161;BME280;40968;52.342;5.528;2023-02-14T05:09:29;103390.22;;;2.27;74.99
43161;BME280;40968;52.342;5.528;2023-02-14T05:11:55;103396.41;;;2.32;75.47
43161;BME280;40968;52.342;5.528;2023-02-14T05:14:22;103372.56;;;2.28;76.53
43161;BME280;40968;52.342;5.528;2023-02-14T05:16:50;103324.03;;;1.99;77.01
43161;BME280;40968;52.342;5.528;2023-02-14T05:19:17;103403.47;;;2.51;77.48
43161;BME280;40968;52.342;5.528;2023-02-14T05:21:43;103392.00;;;2.44;77.47
43161;BME280;40968;52.342;5.528;2023-02-14T05:24:10;103373.47;;;2.35;77.41
43161;BME280;40968;52.342;5.528;2023-02-14T05:26:37;103388.47;;;2.46;78.30
43161;BME280;40968;52.342;5.528;2023-02-14T05:29:03;103427.31;;;2.71;78.22
43161;BME280;40968;52.342;5.528;2023-02-14T05:31:30;103320.50;;;2.07;78.18
43161;BME280;40968;52.342;5.528;2023-02-14T05:33:58;103071.84;;;0.64;77.97
43161;BME280;40968;52.342;5.528;2023-02-14T05:36:24;103429.94;;;2.71;78.20
43161;BME280;40968;52.342;5.528;2023-02-14T05:38:51;103344.31;;;2.16;77.42
43161;BME280;40968;52.342;5.528;2023-02-14T05:41:17;103429.94;;;2.63;77.10
43161;BME280;40968;52.342;5.528;2023-02-14T05:43:44;103395.53;;;2.44;77.52
43161;BME280;40968;52.342;5.528;2023-02-14T05:46:11;103428.19;;;2.60;77.56
43161;BME280;40968;52.342;5.528;2023-02-14T05:48:37;103271.06;;;1.62;77.21
43161;BME280;40968;52.342;5.528;2023-02-14T05:51:08;103437.00;;;2.56;77.39
43161;BME280;40968;52.342;5.528;2023-02-14T05:53:35;103417.56;;;2.42;77.40
43161;BME280;40968;52.342;5.528;2023-02-14T05:56:02;103311.69;;;1.86;77.62
43161;BME280;40968;52.342;5.528;2023-02-14T05:58:29;103405.22;;;2.41;77.76
43161;BME280;40968;52.342;5.528;2023-02-14T06:00:56;103424.66;;;2.55;78.97
43161;BME280;40968;52.342;5.528;2023-02-14T06:03:23;103427.28;;;2.55;78.76
43161;BME280;40968;52.342;5.528;2023-02-14T06:05:50;103358.44;;;2.20;79.10
43161;BME280;40968;52.342;5.528;2023-02-14T06:08:18;103379.63;;;2.37;79.48
43161;BME280;40968;52.342;5.528;2023-02-14T06:10:45;103387.59;;;2.40;79.68
43161;BME280;40968;52.342;5.528;2023-02-14T06:13:11;103410.53;;;2.53;80.14
43161;BME280;40968;52.342;5.528;2023-02-14T06:15:38;103434.34;;;2.58;80.11
43161;BME280;40968;52.342;5.528;2023-02-14T06:18:05;103415.81;;;2.56;79.84
43161;BME280;40968;52.342;5.528;2023-02-14T06:20:31;103334.63;;;1.99;80.09
43161;BME280;40968;52.342;5.528;2023-02-14T06:22:58;103176.69;;;1.03;80.26
43161;BME280;40968;52.342;5.528;2023-02-14T06:25:26;103278.13;;;1.67;80.57
43161;BME280;40968;52.342;5.528;2023-02-14T06:27:54;103442.31;;;2.55;80.44
43161;BME280;40968;52.342;5.528;2023-02-14T06:30:21;103384.94;;;2.23;80.51
43161;BME280;40968;52.342;5.528;2023-02-14T06:32:48;103435.22;;;2.55;80.44
43161;BME280;40968;52.342;5.528;2023-02-14T06:35:15;103434.38;;;2.55;80.62
43161;BME280;40968;52.342;5.528;2023-02-14T06:37:42;103357.53;;;2.07;80.55
43161;BME280;40968;52.342;5.528;2023-02-14T06:40:10;103432.59;;;2.52;80.56
43161;BME280;40968;52.342;5.528;2023-02-14T06:42:38;103382.25;;;2.15;80.37
43161;BME280;40968;52.342;5.528;2023-02-14T06:45:06;103426.41;;;2.50;80.51
43161;BME280;40968;52.342;5.528;2023-02-14T06:47:33;103398.13;;;2.30;80.73
43161;BME280;40968;52.342;5.528;2023-02-14T06:49:59;103405.22;;;2.31;80.79
43161;BME280;40968;52.342;5.528;2023-02-14T06:52:28;103385.78;;;2.23;80.75
43161;BME280;40968;52.342;5.528;2023-02-14T06:54:55;103397.25;;;2.25;80.85
43161;BME280;40968;52.342;5.528;2023-02-14T06:57:21;103440.53;;;2.46;80.82
43161;BME280;40968;52.342;5.528;2023-02-14T06:59:49;103244.56;;;1.31;80.85
43161;BME280;40968;52.342;5.528;2023-02-14T07:02:16;103292.22;;;1.55;80.65
43161;BME280;40968;52.342;5.528;2023-02-14T07:04:42;103396.34;;;2.11;80.55
43161;BME280;40968;52.342;5.528;2023-02-14T07:07:09;103443.19;;;2.40;81.13
43161;BME280;40968;52.342;5.528;2023-02-14T07:09:35;103396.38;;;2.12;81.02
43161;BME280;40968;52.342;5.528;2023-02-14T07:12:02;103289.53;;;1.48;81.23
43161;BME280;40968;52.342;5.528;2023-02-14T07:14:29;103276.31;;;1.44;80.81
43161;BME280;40968;52.342;5.528;2023-02-14T07:16:57;103263.06;;;1.35;80.98
43161;BME280;40968;52.342;5.528;2023-02-14T07:19:23;103408.72;;;2.15;81.34
43161;BME280;40968;52.342;5.528;2023-02-14T07:21:50;103409.63;;;2.23;81.83
43161;BME280;40968;52.342;5.528;2023-02-14T07:24:17;103420.22;;;2.29;82.26
43161;BME280;40968;52.342;5.528;2023-02-14T07:26:43;103285.13;;;1.49;82.62
43161;BME280;40968;52.342;5.528;2023-02-14T07:29:10;103301.03;;;1.68;82.84
43161;BME280;40968;52.342;5.528;2023-02-14T07:31:36;103404.31;;;2.26;82.67
43161;BME280;40968;52.342;5.528;2023-02-14T07:34:04;103429.94;;;2.40;82.99
43161;BME280;40968;52.342;5.528;2023-02-14T07:36:31;103376.97;;;2.06;83.21
43161;BME280;40968;52.342;5.528;2023-02-14T07:38:58;103316.94;;;1.69;83.23
43161;BME280;40968;52.342;5.528;2023-02-14T07:41:24;103378.72;;;2.01;83.47
43161;BME280;40968;52.342;5.528;2023-02-14T07:43:51;103143.97;;;0.66;83.35
43161;BME280;40968;52.342;5.528;2023-02-14T07:46:18;103230.41;;;1.14;83.52
43161;BME280;40968;52.342;5.528;2023-02-14T07:48:44;103435.22;;;2.38;83.77
43161;BME280;40968;52.342;5.528;2023-02-14T07:51:13;103406.94;;;2.17;84.20
43161;BME280;40968;52.342;5.528;2023-02-14T07:53:40;103260.41;;;1.31;84.01
43161;BME280;40968;52.342;5.528;2023-02-14T07:56:07;103440.53;;;2.43;84.36
43161;BME280;40968;52.342;5.528;2023-02-14T07:58:33;103350.47;;;1.90;84.61
43161;BME280;40968;52.342;5.528;2023-02-14T08:01:00;103399.91;;;2.18;84.73
43161;BME280;40968;52.342;5.528;2023-02-14T08:03:26;103438.75;;;2.51;84.74
43161;BME280;40968;52.342;5.528;2023-02-14T08:05:53;103290.47;;;1.64;84.88
43161;BME280;40968;52.342;5.528;2023-02-14T08:08:25;103269.31;;;1.64;84.90
43161;BME280;40968;52.342;5.528;2023-02-14T08:10:52;103428.19;;;2.60;84.53
43161;BME280;40968;52.342;5.528;2023-02-14T08:13:18;103362.84;;;2.25;85.05
43161;BME280;40968;52.342;5.528;2023-02-14T08:15:45;103349.63;;;2.22;85.00
43161;BME280;40968;52.342;5.528;2023-02-14T08:18:31;103365.53;;;2.35;84.95
43161;BME280;40968;52.342;5.528;2023-02-14T08:20:58;103426.41;;;2.75;85.17
43161;BME280;40968;52.342;5.528;2023-02-14T08:23:26;103140.59;;;1.11;84.72
43161;BME280;40968;52.342;5.528;2023-02-14T08:25:53;103404.34;;;2.67;84.95
43161;BME280;40968;52.342;5.528;2023-02-14T08:28:20;103269.34;;;1.92;84.89
43161;BME280;40968;52.342;5.528;2023-02-14T08:30:46;103371.69;;;2.55;85.34
43161;BME280;40968;52.342;5.528;2023-02-14T08:33:13;103399.94;;;2.75;85.24
43161;BME280;40968;52.342;5.528;2023-02-14T08:35:40;103435.25;;;3.02;85.55
43161;BME280;40968;52.342;5.528;2023-02-14T08:38:06;103388.44;;;2.79;85.42
43161;BME280;40968;52.342;5.528;2023-02-14T08:40:35;103438.78;;;3.08;85.28
43161;BME280;40968;52.342;5.528;2023-02-14T08:43:01;103369.06;;;2.66;85.22
43161;BME280;40968;52.342;5.528;2023-02-14T08:45:28;103389.34;;;2.89;85.26
43161;BME280;40968;52.342;5.528;2023-02-14T08:47:59;103354.03;;;2.70;85.06
43161;BME280;40968;52.342;5.528;2023-02-14T08:50:26;103399.91;;;2.99;85.37
43161;BME280;40968;52.342;5.528;2023-02-14T08:52:53;103444.94;;;3.24;85.18
43161;BME280;40968;52.342;5.528;2023-02-14T08:55:19;103333.75;;;2.62;85.18
43161;BME280;40968;52.342;5.528;2023-02-14T08:57:47;103448.44;;;3.32;85.32
43161;BME280;40968;52.342;5.528;2023-02-14T09:00:14;103449.31;;;3.35;85.17
43161;BME280;40968;52.342;5.528;2023-02-14T09:02:41;103377.84;;;2.96;85.11
43161;BME280;40968;52.342;5.528;2023-02-14T09:05:08;103442.22;;;3.43;85.10
43161;BME280;40968;52.342;5.528;2023-02-14T09:07:35;103447.53;;;3.47;85.22
43161;BME280;40968;52.342;5.528;2023-02-14T09:10:02;103444.00;;;3.50;85.16
43161;BME280;40968;52.342;5.528;2023-02-14T09:12:28;103341.63;;;2.92;85.28
43161;BME280;40968;52.342;5.528;2023-02-14T09:14:56;103355.75;;;3.05;85.24
43161;BME280;40968;52.342;5.528;2023-02-14T09:17:23;103390.13;;;3.31;85.20
43161;BME280;40968;52.342;5.528;2023-02-14T09:19:49;103448.34;;;3.67;85.37
43161;BME280;40968;52.342;5.528;2023-02-14T09:22:18;103279.84;;;2.79;85.32
43161;BME280;40968;52.342;5.528;2023-02-14T09:24:45;103327.44;;;3.13;85.48
43161;BME280;40968;52.342;5.528;2023-02-14T09:27:12;103427.97;;;3.78;85.50
43161;BME280;40968;52.342;5.528;2023-02-14T09:29:38;103434.13;;;3.89;85.71
43161;BME280;40968;52.342;5.528;2023-02-14T09:32:06;103435.84;;;3.96;85.62
43161;BME280;40968;52.342;5.528;2023-02-14T09:34:33;103443.78;;;4.03;85.54
43161;BME280;40968;52.342;5.528;2023-02-14T09:37:00;103440.22;;;4.07;85.54
43161;BME280;40968;52.342;5.528;2023-02-14T09:39:44;103435.75;;;4.13;85.29
43161;BME280;40968;52.342;5.528;2023-02-14T09:42:32;103429.53;;;4.19;85.41
43161;BME280;40968;52.342;5.528;2023-02-14T09:45:03;103429.47;;;4.27;85.61
43161;BME280;40968;52.342;5.528;2023-02-14T09:47:35;103290.19;;;3.50;85.60
43161;BME280;40968;52.342;5.528;2023-02-14T09:50:06;103395.84;;;4.27;85.65
43161;BME280;40968;52.342;5.528;2023-02-14T09:52:38;103376.47;;;4.16;85.51
43161;BME280;40968;52.342;5.528;2023-02-14T09:55:12;103278.56;;;3.73;85.43
43161;BME280;40968;52.342;5.528;2023-02-14T09:57:44;103290.00;;;3.84;85.19
43161;BME280;40968;52.342;5.528;2023-02-14T10:00:22;103423.78;;;4.78;85.31
43161;BME280;40968;52.342;5.528;2023-02-14T10:02:57;103349.69;;;4.44;85.21
43161;BME280;40968;52.342;5.528;2023-02-14T10:05:28;103131.25;;;3.28;84.80
43161;BME280;40968;52.342;5.528;2023-02-14T10:07:59;103363.66;;;4.71;84.76
43161;BME280;40968;52.342;5.528;2023-02-14T10:10:37;103384.69;;;4.92;84.69
43161;BME280;40968;52.342;5.528;2023-02-14T10:13:10;103385.50;;;5.01;84.63
43161;BME280;40968;52.342;5.528;2023-02-14T10:15:42;103428.59;;;5.34;84.53
43161;BME280;40968;52.342;5.528;2023-02-14T10:18:14;103354.50;;;5.00;84.05
43161;BME280;40968;52.342;5.528;2023-02-14T10:20:45;103430.16;;;5.50;84.14
43161;BME280;40968;52.342;5.528;2023-02-14T10:23:28;103428.31;;;5.58;83.93
43161;BME280;40968;52.342;5.528;2023-02-14T10:25:59;103426.44;;;5.67;83.51
43161;BME280;40968;52.342;5.528;2023-02-14T10:28:30;103384.00;;;5.53;83.34
43161;BME280;40968;52.342;5.528;2023-02-14T10:31:16;103394.56;;;5.63;83.27
43161;BME280;40968;52.342;5.528;2023-02-14T10:33:51;103359.25;;;5.49;83.03
43161;BME280;40968;52.342;5.528;2023-02-14T10:36:35;103274.66;;;5.09;82.69
43161;BME280;40968;52.342;5.528;2023-02-14T10:39:17;103390.63;;;5.89;82.47
43161;BME280;40968;52.342;5.528;2023-02-14T10:41:53;103404.66;;;6.07;82.63
43161;BME280;40968;52.342;5.528;2023-02-14T10:44:34;103393.88;;;6.13;82.13
43161;BME280;40968;52.342;5.528;2023-02-14T10:47:21;103416.44;;;6.48;81.77
43161;BME280;40968;52.342;5.528;2023-02-14T10:49:54;103410.00;;;6.61;81.10
43161;BME280;40968;52.342;5.528;2023-02-14T10:52:25;103231.31;;;5.64;80.70
43161;BME280;40968;52.342;5.528;2023-02-14T10:54:54;103410.47;;;6.88;80.46
43161;BME280;40968;52.342;5.528;2023-02-14T10:57:24;103350.31;;;6.72;80.06
43161;BME280;40968;52.342;5.528;2023-02-14T10:59:56;103328.19;;;6.68;79.57
43161;BME280;40968;52.342;5.528;2023-02-14T11:02:24;103404.41;;;7.28;79.45
43161;BME280;40968;52.342;5.528;2023-02-14T11:04:53;103372.47;;;7.24;79.10
43161;BME280;40968;52.342;5.528;2023-02-14T11:07:20;103398.41;;;7.59;78.39
43161;BME280;40968;52.342;5.528;2023-02-14T11:09:47;103399.91;;;7.74;77.84
43161;BME280;40968;52.342;5.528;2023-02-14T11:12:32;103306.31;;;7.40;77.07
43161;BME280;40968;52.342;5.528;2023-02-14T11:15:09;103389.44;;;8.04;76.50
43161;BME280;40968;52.342;5.528;2023-02-14T11:17:36;103365.44;;;8.03;75.85
43161;BME280;40968;52.342;5.528;2023-02-14T11:20:21;103321.09;;;7.95;75.35
43161;BME280;40968;52.342;5.528;2023-02-14T11:22:49;103387.69;;;8.41;74.98
43161;BME280;40968;52.342;5.528;2023-02-14T11:25:19;103354.66;;;8.43;74.79
43161;BME280;40968;52.342;5.528;2023-02-14T11:27:47;103382.56;;;8.69;74.02
43161;BME280;40968;52.342;5.528;2023-02-14T11:30:23;103281.22;;;8.24;72.68
43161;BME280;40968;52.342;5.528;2023-02-14T11:32:52;103357.38;;;8.78;72.09
43161;BME280;40968;52.342;5.528;2023-02-14T11:35:23;103321.72;;;8.77;71.62
43161;BME280;40968;52.342;5.528;2023-02-14T11:37:53;103368.88;;;9.15;71.36
43161;BME280;40968;52.342;5.528;2023-02-14T11:40:26;103321.00;;;9.04;71.14
43161;BME280;40968;52.342;5.528;2023-02-14T11:42:57;103361.88;;;9.42;70.32
43161;BME280;40968;52.342;5.528;2023-02-14T11:45:30;103314.13;;;9.26;69.64
43161;BME280;40968;52.342;5.528;2023-02-14T11:48:14;103283.97;;;9.21;69.25
43161;BME280;40968;52.342;5.528;2023-02-14T11:50:43;103294.75;;;9.48;68.88
43161;BME280;40968;52.342;5.528;2023-02-14T11:53:21;103350.31;;;10.00;68.22
43161;BME280;40968;52.342;5.528;2023-02-14T11:55:51;103289.19;;;9.84;67.59
43161;BME280;40968;52.342;5.528;2023-02-14T11:58:28;103243.09;;;9.73;66.72
43161;BME280;40968;52.342;5.528;2023-02-14T12:00:56;103339.06;;;10.43;65.75
43161;BME280;40968;52.342;5.528;2023-02-14T12:03:25;103310.72;;;10.35;65.08
43161;BME280;40968;52.342;5.528;2023-02-14T12:05:54;103329.41;;;10.65;64.95
43161;BME280;40968;52.342;5.528;2023-02-14T12:08:26;103206.44;;;10.02;63.79
43161;BME280;40968;52.342;5.528;2023-02-14T12:11:01;103313.88;;;10.74;63.60
43161;BME280;40968;52.342;5.528;2023-02-14T12:13:28;103217.94;;;10.31;63.48
43161;BME280;40968;52.342;5.528;2023-02-14T12:15:57;103251.03;;;10.56;62.82
43161;BME280;40968;52.342;5.528;2023-02-14T12:18:46;103319.53;;;11.16;62.50
43161;BME280;40968;52.342;5.528;2023-02-14T12:21:41;103297.06;;;11.18;62.09
43161;BME280;40968;52.342;5.528;2023-02-14T12:24:19;103319.59;;;11.38;61.95
43161;BME280;40968;52.342;5.528;2023-02-14T12:26:54;103249.75;;;11.16;61.90
43161;BME280;40968;52.342;5.528;2023-02-14T12:29:25;103262.50;;;11.33;61.72
43161;BME280;40968;52.342;5.528;2023-02-14T12:31:59;103308.53;;;11.69;60.83
43161;BME280;40968;52.342;5.528;2023-02-14T12:34:26;103309.16;;;11.76;60.00
43161;BME280;40968;52.342;5.528;2023-02-14T12:37:07;103288.50;;;11.78;60.89
43161;BME280;40968;52.342;5.528;2023-02-14T12:39:44;103219.09;;;11.45;60.26
43161;BME280;40968;52.342;5.528;2023-02-14T12:42:24;103295.59;;;12.03;60.51
43161;BME280;40968;52.342;5.528;2023-02-14T12:45:01;103170.63;;;11.48;59.69
43161;BME280;40968;52.342;5.528;2023-02-14T12:47:36;103236.13;;;11.88;59.77
43161;BME280;40968;52.342;5.528;2023-02-14T12:50:27;103279.34;;;12.26;59.74
43161;BME280;40968;52.342;5.528;2023-02-14T12:53:07;103232.09;;;12.00;58.71
43161;BME280;40968;52.342;5.528;2023-02-14T12:55:50;103258.94;;;12.22;58.63
43161;BME280;40968;52.342;5.528;2023-02-14T12:58:30;103220.50;;;11.98;58.78
43161;BME280;40968;52.342;5.528;2023-02-14T13:01:12;103221.19;;;12.03;58.81
43161;BME280;40968;52.342;5.528;2023-02-14T13:06:40;103259.78;;;12.23;59.23
43161;BME280;40968;52.342;5.528;2023-02-14T13:09:26;103254.59;;;12.18;58.83
43161;BME280;40968;52.342;5.528;2023-02-14T13:12:05;103252.44;;;12.06;58.54
43161;BME280;40968;52.342;5.528;2023-02-14T13:14:44;103217.94;;;11.73;59.13
43161;BME280;40968;52.342;5.528;2023-02-14T13:17:20;103232.06;;;11.78;59.75
43161;BME280;40968;52.342;5.528;2023-02-14T13:19:54;103159.56;;;11.34;59.88
43161;BME280;40968;52.342;5.528;2023-02-14T13:22:26;103220.19;;;11.61;59.97
43161;BME280;40968;52.342;5.528;2023-02-14T13:24:58;103230.00;;;11.63;60.08
43161;BME280;40968;52.342;5.528;2023-02-14T13:27:30;103228.47;;;11.57;59.91